sensor_id;sensor_type;location;lat;lon;timestamp;pressure;altitude;pressure_sealevel;temperature;humidity
31873;BME280;22407;42.820;23.374;2022-07-23T00:00:36;95993.60;;;16.90;68.84
31873;BME280;22407;42.820;23.374;2022-07-23T00:03:05;96002.33;;;17.00;68.60
31873;BME280;22407;42.820;23.374;2022-07-23T00:05:35;96004.52;;;16.88;69.23
31873;BME280;22407;42.820;23.374;2022-07-23T00:08:05;96005.65;;;16.77;69.62
31873;BME280;22407;42.820;23.374;2022-07-23T00:10:34;96005.45;;;16.79;69.65
31873;BME280;22407;42.820;23.374;2022-07-23T00:13:03;96000.59;;;16.66;70.08
31873;BME280;22407;42.820;23.374;2022-07-23T00:15:32;96000.72;;;16.56;70.72
31873;BME280;22407;42.820;23.374;2022-07-23T00:18:01;95998.95;;;16.81;69.54
31873;BME280;22407;42.820;23.374;2022-07-23T00:20:30;95999.16;;;16.88;69.12
31873;BME280;22407;42.820;23.374;2022-07-23T00:22:58;95998.27;;;16.75;69.59
31873;BME280;22407;42.820;23.374;2022-07-23T00:25:28;96002.61;;;16.76;69.78
31873;BME280;22407;42.820;23.374;2022-07-23T00:27:57;95992.73;;;16.77;69.96
31873;BME280;22407;42.820;23.374;2022-07-23T00:30:27;96000.50;;;16.92;69.16
31873;BME280;22407;42.820;23.374;2022-07-23T00:33:01;95999.82;;;16.86;69.18
31873;BME280;22407;42.820;23.374;2022-07-23T00:35:33;95998.59;;;16.76;69.41
31873;BME280;22407;42.820;23.374;2022-07-23T00:38:03;96005.13;;;16.70;69.59
31873;BME280;22407;42.820;23.374;2022-07-23T00:40:33;96002.73;;;16.54;70.57
31873;BME280;22407;42.820;23.374;2022-07-23T00:43:03;96000.53;;;16.46;70.91
31873;BME280;22407;42.820;23.374;2022-07-23T00:45:32;96004.25;;;16.53;70.66
31873;BME280;22407;42.820;23.374;2022-07-23T00:48:01;96000.42;;;16.64;70.19
31873;BME280;22407;42.820;23.374;2022-07-23T00:50:31;96006.06;;;16.40;71.08
31873;BME280;22407;42.820;23.374;2022-07-23T00:53:00;96001.68;;;16.35;71.74
31873;BME280;22407;42.820;23.374;2022-07-23T00:55:29;96003.72;;;16.45;71.18
31873;BME280;22407;42.820;23.374;2022-07-23T00:57:57;96001.66;;;16.27;71.99
31873;BME280;22407;42.820;23.374;2022-07-23T01:00:27;96004.16;;;16.24;72.32
31873;BME280;22407;42.820;23.374;2022-07-23T01:02:57;96011.92;;;16.48;71.07
31873;BME280;22407;42.820;23.374;2022-07-23T01:05:26;96006.26;;;16.51;70.79
31873;BME280;22407;42.820;23.374;2022-07-23T01:07:54;96008.38;;;16.35;71.50
31873;BME280;22407;42.820;23.374;2022-07-23T01:10:24;96013.20;;;16.19;71.97
31873;BME280;22407;42.820;23.374;2022-07-23T01:13:02;96016.86;;;16.18;72.08
31873;BME280;22407;42.820;23.374;2022-07-23T01:15:32;96021.27;;;16.27;71.84
31873;BME280;22407;42.820;23.374;2022-07-23T01:18:02;96022.91;;;15.86;73.04
31873;BME280;22407;42.820;23.374;2022-07-23T01:20:32;96026.91;;;15.82;73.57
31873;BME280;22407;42.820;23.374;2022-07-23T01:23:01;96023.41;;;15.89;73.24
31873;BME280;22407;42.820;23.374;2022-07-23T01:25:30;96024.00;;;16.05;72.81
31873;BME280;22407;42.820;23.374;2022-07-23T01:28:00;96026.34;;;16.00;73.03
31873;BME280;22407;42.820;23.374;2022-07-23T01:30:29;96015.45;;;16.01;72.73
31873;BME280;22407;42.820;23.374;2022-07-23T01:32:58;96016.27;;;15.94;72.87
31873;BME280;22407;42.820;23.374;2022-07-23T01:35:27;96010.23;;;15.92;73.00
31873;BME280;22407;42.820;23.374;2022-07-23T01:37:56;96007.31;;;15.81;73.52
31873;BME280;22407;42.820;23.374;2022-07-23T01:40:24;96012.47;;;15.74;73.77
31873;BME280;22407;42.820;23.374;2022-07-23T01:42:53;96009.00;;;15.82;73.63
31873;BME280;22407;42.820;23.374;2022-07-23T01:45:22;96003.34;;;15.63;74.20
31873;BME280;22407;42.820;23.374;2022-07-23T01:47:51;96002.41;;;15.46;74.96
31873;BME280;22407;42.820;23.374;2022-07-23T01:50:20;96004.20;;;15.37;75.73
31873;BME280;22407;42.820;23.374;2022-07-23T01:52:49;95999.46;;;15.09;76.82
31873;BME280;22407;42.820;23.374;2022-07-23T01:55:18;96005.27;;;15.27;76.31
31873;BME280;22407;42.820;23.374;2022-07-23T01:57:47;96000.98;;;15.34;76.32
31873;BME280;22407;42.820;23.374;2022-07-23T02:00:16;95998.85;;;15.68;74.50
31873;BME280;22407;42.820;23.374;2022-07-23T02:02:45;95998.75;;;15.51;75.32
31873;BME280;22407;42.820;23.374;2022-07-23T02:05:14;96004.75;;;15.49;75.39
31873;BME280;22407;42.820;23.374;2022-07-23T02:07:43;95998.55;;;15.45;75.25
31873;BME280;22407;42.820;23.374;2022-07-23T02:10:12;96004.11;;;15.25;77.08
31873;BME280;22407;42.820;23.374;2022-07-23T02:12:41;96000.93;;;15.26;76.97
31873;BME280;22407;42.820;23.374;2022-07-23T02:15:10;95995.48;;;15.13;76.63
31873;BME280;22407;42.820;23.374;2022-07-23T02:17:38;95994.48;;;15.10;76.85
31873;BME280;22407;42.820;23.374;2022-07-23T02:20:08;95997.69;;;15.18;76.56
31873;BME280;22407;42.820;23.374;2022-07-23T02:22:38;96004.66;;;15.11;76.99
31873;BME280;22407;42.820;23.374;2022-07-23T02:25:08;96001.30;;;15.09;77.45
31873;BME280;22407;42.820;23.374;2022-07-23T02:27:37;96004.09;;;15.03;78.01
31873;BME280;22407;42.820;23.374;2022-07-23T02:30:07;96003.41;;;15.01;77.88
31873;BME280;22407;42.820;23.374;2022-07-23T02:32:36;96002.28;;;14.86;78.13
31873;BME280;22407;42.820;23.374;2022-07-23T02:35:07;96007.66;;;14.72;78.87
31873;BME280;22407;42.820;23.374;2022-07-23T02:37:36;96005.50;;;14.57;79.89
31873;BME280;22407;42.820;23.374;2022-07-23T02:40:05;96011.89;;;14.61;79.04
31873;BME280;22407;42.820;23.374;2022-07-23T02:42:34;96012.42;;;14.50;79.38
31873;BME280;22407;42.820;23.374;2022-07-23T02:45:03;96016.84;;;14.55;79.57
31873;BME280;22407;42.820;23.374;2022-07-23T02:47:32;96019.70;;;14.30;80.55
31873;BME280;22407;42.820;23.374;2022-07-23T02:50:01;96011.86;;;14.01;82.24
31873;BME280;22407;42.820;23.374;2022-07-23T02:52:32;96017.41;;;14.49;80.21
31873;BME280;22407;42.820;23.374;2022-07-23T02:55:01;96021.08;;;14.48;80.10
31873;BME280;22407;42.820;23.374;2022-07-23T02:57:30;96029.55;;;14.44;80.78
31873;BME280;22407;42.820;23.374;2022-07-23T02:59:59;96030.24;;;14.32;81.57
31873;BME280;22407;42.820;23.374;2022-07-23T03:02:28;96032.36;;;14.28;81.99
31873;BME280;22407;42.820;23.374;2022-07-23T03:04:57;96034.72;;;14.45;80.97
31873;BME280;22407;42.820;23.374;2022-07-23T03:07:25;96037.46;;;14.63;79.39
31873;BME280;22407;42.820;23.374;2022-07-23T03:09:54;96043.73;;;14.44;80.53
31873;BME280;22407;42.820;23.374;2022-07-23T03:12:23;96040.56;;;14.45;80.09
31873;BME280;22407;42.820;23.374;2022-07-23T03:14:52;96049.41;;;14.45;80.28
31873;BME280;22407;42.820;23.374;2022-07-23T03:17:21;96048.28;;;14.62;79.08
31873;BME280;22407;42.820;23.374;2022-07-23T03:19:50;96051.30;;;14.49;79.60
31873;BME280;22407;42.820;23.374;2022-07-23T03:22:19;96058.00;;;14.35;80.79
31873;BME280;22407;42.820;23.374;2022-07-23T03:24:48;96056.30;;;14.34;80.94
31873;BME280;22407;42.820;23.374;2022-07-23T03:27:25;96054.64;;;14.33;80.79
31873;BME280;22407;42.820;23.374;2022-07-23T03:29:56;96060.11;;;14.31;81.08
31873;BME280;22407;42.820;23.374;2022-07-23T03:32:26;96059.06;;;14.28;81.15
31873;BME280;22407;42.820;23.374;2022-07-23T03:34:55;96055.28;;;14.31;81.38
31873;BME280;22407;42.820;23.374;2022-07-23T03:37:23;96054.61;;;14.47;80.67
31873;BME280;22407;42.820;23.374;2022-07-23T03:39:52;96061.61;;;14.16;82.19
31873;BME280;22407;42.820;23.374;2022-07-23T03:42:21;96059.70;;;14.26;81.95
31873;BME280;22407;42.820;23.374;2022-07-23T03:44:50;96058.42;;;14.30;82.90
31873;BME280;22407;42.820;23.374;2022-07-23T03:47:19;96061.91;;;14.27;82.94
31873;BME280;22407;42.820;23.374;2022-07-23T03:49:50;96057.78;;;14.46;81.41
31873;BME280;22407;42.820;23.374;2022-07-23T03:52:19;96064.55;;;14.54;80.80
31873;BME280;22407;42.820;23.374;2022-07-23T03:54:48;96069.48;;;14.49;81.41
31873;BME280;22407;42.820;23.374;2022-07-23T03:57:16;96061.79;;;14.46;81.94
31873;BME280;22407;42.820;23.374;2022-07-23T03:59:45;96060.86;;;14.65;80.70
31873;BME280;22407;42.820;23.374;2022-07-23T04:02:14;96069.06;;;14.68;80.98
31873;BME280;22407;42.820;23.374;2022-07-23T04:04:43;96065.89;;;14.54;81.85
31873;BME280;22407;42.820;23.374;2022-07-23T04:07:12;96064.22;;;14.39;83.07
31873;BME280;22407;42.820;23.374;2022-07-23T04:09:41;96060.09;;;14.45;83.77
31873;BME280;22407;42.820;23.374;2022-07-23T04:12:11;96070.11;;;14.71;83.21
31873;BME280;22407;42.820;23.374;2022-07-23T04:14:40;96070.56;;;14.66;82.90
31873;BME280;22407;42.820;23.374;2022-07-23T04:17:09;96069.09;;;14.86;82.95
31873;BME280;22407;42.820;23.374;2022-07-23T04:19:39;96067.47;;;14.93;82.30
31873;BME280;22407;42.820;23.374;2022-07-23T04:22:12;96067.09;;;15.24;81.37
31873;BME280;22407;42.820;23.374;2022-07-23T04:24:41;96062.92;;;15.47;80.38
31873;BME280;22407;42.820;23.374;2022-07-23T04:27:10;96072.85;;;15.55;79.24
31873;BME280;22407;42.820;23.374;2022-07-23T04:29:39;96067.17;;;15.58;79.20
31873;BME280;22407;42.820;23.374;2022-07-23T04:32:08;96064.53;;;15.62;79.31
31873;BME280;22407;42.820;23.374;2022-07-23T04:34:37;96065.36;;;15.80;78.23
31873;BME280;22407;42.820;23.374;2022-07-23T04:37:05;96066.97;;;15.99;77.31
31873;BME280;22407;42.820;23.374;2022-07-23T04:39:34;96068.11;;;15.93;78.10
31873;BME280;22407;42.820;23.374;2022-07-23T04:42:03;96074.34;;;16.01;77.74
31873;BME280;22407;42.820;23.374;2022-07-23T04:44:32;96073.75;;;16.16;77.43
31873;BME280;22407;42.820;23.374;2022-07-23T04:47:01;96073.49;;;16.35;76.51
31873;BME280;22407;42.820;23.374;2022-07-23T04:49:30;96075.87;;;16.38;76.96
31873;BME280;22407;42.820;23.374;2022-07-23T04:51:59;96070.02;;;16.43;76.56
31873;BME280;22407;42.820;23.374;2022-07-23T04:54:28;96071.77;;;16.69;75.82
31873;BME280;22407;42.820;23.374;2022-07-23T04:56:56;96074.64;;;16.67;76.54
31873;BME280;22407;42.820;23.374;2022-07-23T04:59:25;96077.70;;;16.80;76.26
31873;BME280;22407;42.820;23.374;2022-07-23T05:04:30;96073.91;;;17.08;74.80
31873;BME280;22407;42.820;23.374;2022-07-23T05:06:59;96075.59;;;17.37;73.97
31873;BME280;22407;42.820;23.374;2022-07-23T05:09:28;96072.91;;;17.46;74.53
31873;BME280;22407;42.820;23.374;2022-07-23T05:11:56;96075.09;;;17.58;75.34
31873;BME280;22407;42.820;23.374;2022-07-23T05:14:26;96072.08;;;17.66;74.27
31873;BME280;22407;42.820;23.374;2022-07-23T05:16:55;96066.50;;;17.79;74.21
31873;BME280;22407;42.820;23.374;2022-07-23T05:19:24;96067.55;;;17.87;74.16
31873;BME280;22407;42.820;23.374;2022-07-23T05:21:53;96073.38;;;17.98;74.26
31873;BME280;22407;42.820;23.374;2022-07-23T05:24:22;96072.15;;;18.17;73.42
31873;BME280;22407;42.820;23.374;2022-07-23T05:26:52;96079.86;;;18.29;71.39
31873;BME280;22407;42.820;23.374;2022-07-23T05:29:21;96076.25;;;18.44;70.95
31873;BME280;22407;42.820;23.374;2022-07-23T05:31:49;96075.17;;;18.66;69.74
31873;BME280;22407;42.820;23.374;2022-07-23T05:34:18;96084.00;;;19.14;69.27
31873;BME280;22407;42.820;23.374;2022-07-23T05:36:47;96082.71;;;20.39;65.56
31873;BME280;22407;42.820;23.374;2022-07-23T05:39:16;96076.97;;;21.44;62.08
31873;BME280;22407;42.820;23.374;2022-07-23T05:41:45;96077.66;;;22.31;58.11
31873;BME280;22407;42.820;23.374;2022-07-23T05:44:14;96074.73;;;23.09;55.74
31873;BME280;22407;42.820;23.374;2022-07-23T05:46:43;96068.94;;;23.76;53.78
31873;BME280;22407;42.820;23.374;2022-07-23T05:49:12;96069.20;;;24.31;51.43
31873;BME280;22407;42.820;23.374;2022-07-23T05:51:41;96067.80;;;24.44;50.87
31873;BME280;22407;42.820;23.374;2022-07-23T05:54:10;96062.80;;;24.83;50.26
31873;BME280;22407;42.820;23.374;2022-07-23T05:56:39;96058.32;;;24.80;49.98
31873;BME280;22407;42.820;23.374;2022-07-23T05:59:07;96058.97;;;25.27;49.04
31873;BME280;22407;42.820;23.374;2022-07-23T06:01:36;96053.03;;;25.37;48.03
31873;BME280;22407;42.820;23.374;2022-07-23T06:04:05;96057.68;;;25.61;47.44
31873;BME280;22407;42.820;23.374;2022-07-23T06:06:34;96050.09;;;26.11;46.71
31873;BME280;22407;42.820;23.374;2022-07-23T06:09:03;96058.59;;;26.49;46.04
31873;BME280;22407;42.820;23.374;2022-07-23T06:11:32;96056.88;;;26.55;44.76
31873;BME280;22407;42.820;23.374;2022-07-23T06:14:01;96048.92;;;26.99;43.90
31873;BME280;22407;42.820;23.374;2022-07-23T06:16:30;96055.10;;;27.25;43.32
31873;BME280;22407;42.820;23.374;2022-07-23T06:19:00;96041.38;;;27.32;43.17
31873;BME280;22407;42.820;23.374;2022-07-23T06:21:28;96050.25;;;27.27;42.53
31873;BME280;22407;42.820;23.374;2022-07-23T06:23:57;96053.07;;;27.29;42.54
31873;BME280;22407;42.820;23.374;2022-07-23T06:26:26;96039.78;;;27.75;42.14
31873;BME280;22407;42.820;23.374;2022-07-23T06:28:55;96040.02;;;28.42;40.83
31873;BME280;22407;42.820;23.374;2022-07-23T06:31:24;96035.41;;;28.54;40.64
31873;BME280;22407;42.820;23.374;2022-07-23T06:33:53;96029.11;;;28.80;39.75
31873;BME280;22407;42.820;23.374;2022-07-23T06:36:22;96027.09;;;28.87;39.42
31873;BME280;22407;42.820;23.374;2022-07-23T06:38:51;96032.41;;;28.67;39.47
31873;BME280;22407;42.820;23.374;2022-07-23T06:41:19;96028.94;;;28.58;39.19
31873;BME280;22407;42.820;23.374;2022-07-23T06:43:50;96034.27;;;28.64;39.18
31873;BME280;22407;42.820;23.374;2022-07-23T06:46:19;96029.07;;;29.18;37.53
31873;BME280;22407;42.820;23.374;2022-07-23T06:48:49;96028.45;;;29.27;37.41
31873;BME280;22407;42.820;23.374;2022-07-23T06:51:18;96023.37;;;29.34;37.65
31873;BME280;22407;42.820;23.374;2022-07-23T06:53:47;96017.38;;;29.51;37.41
31873;BME280;22407;42.820;23.374;2022-07-23T06:56:16;96015.55;;;29.40;37.22
31873;BME280;22407;42.820;23.374;2022-07-23T06:58:44;96018.77;;;29.82;36.11
31873;BME280;22407;42.820;23.374;2022-07-23T07:01:13;96010.17;;;29.14;37.29
31873;BME280;22407;42.820;23.374;2022-07-23T07:03:42;96013.77;;;29.62;36.71
31873;BME280;22407;42.820;23.374;2022-07-23T07:06:11;96010.79;;;29.33;37.53
31873;BME280;22407;42.820;23.374;2022-07-23T07:08:40;96015.60;;;29.28;36.68
31873;BME280;22407;42.820;23.374;2022-07-23T07:11:11;96020.66;;;29.50;36.84
31873;BME280;22407;42.820;23.374;2022-07-23T07:13:40;96016.91;;;29.85;36.42
31873;BME280;22407;42.820;23.374;2022-07-23T07:16:09;96014.77;;;29.87;36.58
31873;BME280;22407;42.820;23.374;2022-07-23T07:18:38;96015.00;;;29.86;35.71
31873;BME280;22407;42.820;23.374;2022-07-23T07:21:07;96012.47;;;29.82;36.62
31873;BME280;22407;42.820;23.374;2022-07-23T07:23:36;96006.78;;;30.03;36.34
31873;BME280;22407;42.820;23.374;2022-07-23T07:26:05;96008.03;;;30.12;36.38
31873;BME280;22407;42.820;23.374;2022-07-23T07:28:34;96001.98;;;30.10;36.84
31873;BME280;22407;42.820;23.374;2022-07-23T07:31:03;96000.19;;;30.18;36.05
31873;BME280;22407;42.820;23.374;2022-07-23T07:33:32;95999.64;;;30.36;36.56
31873;BME280;22407;42.820;23.374;2022-07-23T07:36:01;96005.20;;;30.63;35.12
31873;BME280;22407;42.820;23.374;2022-07-23T07:38:30;96002.69;;;30.59;35.37
31873;BME280;22407;42.820;23.374;2022-07-23T07:40:59;95995.67;;;30.68;35.03
31873;BME280;22407;42.820;23.374;2022-07-23T07:43:28;95989.82;;;31.03;35.56
31873;BME280;22407;42.820;23.374;2022-07-23T07:45:57;95989.92;;;30.89;35.58
31873;BME280;22407;42.820;23.374;2022-07-23T07:48:26;95981.61;;;31.30;34.60
31873;BME280;22407;42.820;23.374;2022-07-23T07:50:55;95986.08;;;31.66;33.84
31873;BME280;22407;42.820;23.374;2022-07-23T07:53:24;95977.45;;;31.85;32.66
31873;BME280;22407;42.820;23.374;2022-07-23T07:55:53;95980.41;;;32.10;32.75
31873;BME280;22407;42.820;23.374;2022-07-23T07:58:22;95975.71;;;32.06;32.59
31873;BME280;22407;42.820;23.374;2022-07-23T08:00:51;95976.97;;;32.28;32.10
31873;BME280;22407;42.820;23.374;2022-07-23T08:03:20;95974.53;;;32.34;31.61
31873;BME280;22407;42.820;23.374;2022-07-23T08:05:53;95977.84;;;32.39;31.84
31873;BME280;22407;42.820;23.374;2022-07-23T08:08:19;95979.53;;;32.45;31.25
31873;BME280;22407;42.820;23.374;2022-07-23T08:10:48;95981.60;;;32.70;32.14
31873;BME280;22407;42.820;23.374;2022-07-23T08:13:17;95971.22;;;32.90;31.01
31873;BME280;22407;42.820;23.374;2022-07-23T08:15:46;95971.22;;;32.90;30.68
31873;BME280;22407;42.820;23.374;2022-07-23T08:18:15;95967.39;;;32.91;30.21
31873;BME280;22407;42.820;23.374;2022-07-23T08:20:44;95971.81;;;33.02;30.96
31873;BME280;22407;42.820;23.374;2022-07-23T08:23:14;95970.23;;;33.19;30.67
31873;BME280;22407;42.820;23.374;2022-07-23T08:25:44;95966.92;;;33.15;30.17
31873;BME280;22407;42.820;23.374;2022-07-23T08:28:14;95962.31;;;33.41;29.78
31873;BME280;22407;42.820;23.374;2022-07-23T08:30:44;95955.99;;;33.56;28.74
31873;BME280;22407;42.820;23.374;2022-07-23T08:33:15;95953.52;;;33.49;29.81
31873;BME280;22407;42.820;23.374;2022-07-23T08:35:47;95945.53;;;33.45;29.01
31873;BME280;22407;42.820;23.374;2022-07-23T08:38:19;95946.63;;;33.57;28.82
31873;BME280;22407;42.820;23.374;2022-07-23T08:40:50;95950.25;;;33.70;29.43
31873;BME280;22407;42.820;23.374;2022-07-23T08:43:27;95950.77;;;33.92;29.07
31873;BME280;22407;42.820;23.374;2022-07-23T08:45:58;95945.83;;;33.97;28.65
31873;BME280;22407;42.820;23.374;2022-07-23T08:48:32;95942.50;;;33.92;28.41
31873;BME280;22407;42.820;23.374;2022-07-23T08:51:03;95939.75;;;34.21;28.94
31873;BME280;22407;42.820;23.374;2022-07-23T08:53:33;95946.04;;;34.39;28.36
31873;BME280;22407;42.820;23.374;2022-07-23T08:56:05;95937.13;;;34.63;28.54
31873;BME280;22407;42.820;23.374;2022-07-23T08:58:34;95930.75;;;34.78;27.18
31873;BME280;22407;42.820;23.374;2022-07-23T09:01:03;95931.58;;;34.81;27.71
31873;BME280;22407;42.820;23.374;2022-07-23T09:03:36;95925.48;;;34.84;26.76
31873;BME280;22407;42.820;23.374;2022-07-23T09:06:07;95927.55;;;35.07;27.04
31873;BME280;22407;42.820;23.374;2022-07-23T09:08:40;95925.82;;;35.27;26.94
31873;BME280;22407;42.820;23.374;2022-07-23T09:11:17;95920.45;;;35.41;27.42
31873;BME280;22407;42.820;23.374;2022-07-23T09:13:48;95920.25;;;35.32;27.59
31873;BME280;22407;42.820;23.374;2022-07-23T09:16:31;95918.11;;;35.61;27.35
31873;BME280;22407;42.820;23.374;2022-07-23T09:19:02;95918.81;;;35.79;26.95
31873;BME280;22407;42.820;23.374;2022-07-23T09:21:33;95921.42;;;35.58;26.57
31873;BME280;22407;42.820;23.374;2022-07-23T09:24:07;95914.45;;;35.73;25.96
31873;BME280;22407;42.820;23.374;2022-07-23T09:29:23;95914.23;;;36.23;26.27
31873;BME280;22407;42.820;23.374;2022-07-23T09:31:59;95907.68;;;36.19;26.05
31873;BME280;22407;42.820;23.374;2022-07-23T09:34:31;95907.91;;;36.46;25.87
31873;BME280;22407;42.820;23.374;2022-07-23T09:37:18;95904.03;;;36.71;25.98
31873;BME280;22407;42.820;23.374;2022-07-23T09:39:49;95899.92;;;36.69;26.31
31873;BME280;22407;42.820;23.374;2022-07-23T09:44:51;95895.88;;;36.56;26.02
31873;BME280;22407;42.820;23.374;2022-07-23T09:47:22;95888.31;;;36.88;26.91
31873;BME280;22407;42.820;23.374;2022-07-23T09:50:05;95886.26;;;36.78;26.12
31873;BME280;22407;42.820;23.374;2022-07-23T09:55:17;95880.31;;;37.27;25.87
31873;BME280;22407;42.820;23.374;2022-07-23T09:57:47;95878.39;;;37.42;24.59
31873;BME280;22407;42.820;23.374;2022-07-23T10:00:20;95872.45;;;37.51;23.15
31873;BME280;22407;42.820;23.374;2022-07-23T10:02:52;95872.78;;;37.66;23.74
31873;BME280;22407;42.820;23.374;2022-07-23T10:05:21;95870.80;;;37.99;24.03
31873;BME280;22407;42.820;23.374;2022-07-23T10:07:51;95865.00;;;37.82;22.41
31873;BME280;22407;42.820;23.374;2022-07-23T10:10:21;95858.11;;;37.96;21.63
31873;BME280;22407;42.820;23.374;2022-07-23T10:12:51;95855.45;;;37.90;22.81
31873;BME280;22407;42.820;23.374;2022-07-23T10:15:21;95858.65;;;37.81;21.60
31873;BME280;22407;42.820;23.374;2022-07-23T10:17:51;95847.44;;;37.89;21.65
31873;BME280;22407;42.820;23.374;2022-07-23T10:20:19;95847.94;;;38.21;21.93
31873;BME280;22407;42.820;23.374;2022-07-23T10:22:54;95852.83;;;38.55;21.07
31873;BME280;22407;42.820;23.374;2022-07-23T10:25:42;95840.56;;;38.83;21.13
31873;BME280;22407;42.820;23.374;2022-07-23T10:34:12;95834.75;;;38.43;20.20
31873;BME280;22407;42.820;23.374;2022-07-23T10:36:40;95834.91;;;38.36;21.00
31873;BME280;22407;42.820;23.374;2022-07-23T10:39:32;95828.29;;;38.62;20.33
31873;BME280;22407;42.820;23.374;2022-07-23T10:42:16;95823.41;;;38.92;20.23
31873;BME280;22407;42.820;23.374;2022-07-23T10:44:47;95820.43;;;38.78;20.98
31873;BME280;22407;42.820;23.374;2022-07-23T10:47:29;95816.03;;;39.13;19.95
31873;BME280;22407;42.820;23.374;2022-07-23T10:50:18;95817.37;;;39.27;19.77
31873;BME280;22407;42.820;23.374;2022-07-23T10:55:49;95808.97;;;39.29;20.59
31873;BME280;22407;42.820;23.374;2022-07-23T10:58:33;95804.24;;;39.19;19.80
31873;BME280;22407;42.820;23.374;2022-07-23T11:00:53;95798.00;;;38.38;20.10
31873;BME280;22407;42.820;23.374;2022-07-23T11:03:37;95799.44;;;38.35;20.79
31873;BME280;22407;42.820;23.374;2022-07-23T11:06:06;95791.17;;;38.71;20.51
31873;BME280;22407;42.820;23.374;2022-07-23T11:08:35;95790.12;;;38.92;19.49
31873;BME280;22407;42.820;23.374;2022-07-23T11:13:44;95780.54;;;39.01;19.02
31873;BME280;22407;42.820;23.374;2022-07-23T11:16:22;95769.73;;;38.63;19.49
31873;BME280;22407;42.820;23.374;2022-07-23T11:18:56;95767.48;;;39.02;19.56
31873;BME280;22407;42.820;23.374;2022-07-23T11:24:16;95764.25;;;39.42;19.43
31873;BME280;22407;42.820;23.374;2022-07-23T11:32:03;95761.45;;;40.05;17.31
31873;BME280;22407;42.820;23.374;2022-07-23T11:34:41;95756.91;;;40.38;17.68
31873;BME280;22407;42.820;23.374;2022-07-23T11:37:12;95752.93;;;40.50;17.33
31873;BME280;22407;42.820;23.374;2022-07-23T11:39:41;95754.00;;;40.69;17.46
31873;BME280;22407;42.820;23.374;2022-07-23T11:42:11;95750.41;;;41.03;17.18
31873;BME280;22407;42.820;23.374;2022-07-23T11:44:41;95746.56;;;41.28;17.36
31873;BME280;22407;42.820;23.374;2022-07-23T11:47:12;95745.21;;;41.43;16.78
31873;BME280;22407;42.820;23.374;2022-07-23T11:49:57;95737.95;;;41.68;15.79
31873;BME280;22407;42.820;23.374;2022-07-23T11:52:27;95732.48;;;41.57;15.82
31873;BME280;22407;42.820;23.374;2022-07-23T11:55:02;95728.89;;;41.47;15.86
31873;BME280;22407;42.820;23.374;2022-07-23T11:57:33;95732.80;;;41.23;16.52
31873;BME280;22407;42.820;23.374;2022-07-23T12:00:11;95729.02;;;41.68;16.74
31873;BME280;22407;42.820;23.374;2022-07-23T12:02:35;95727.25;;;41.79;15.50
31873;BME280;22407;42.820;23.374;2022-07-23T12:05:05;95727.02;;;41.45;15.77
31873;BME280;22407;42.820;23.374;2022-07-23T12:07:41;95721.28;;;41.01;16.18
31873;BME280;22407;42.820;23.374;2022-07-23T12:10:14;95731.14;;;40.43;16.34
31873;BME280;22407;42.820;23.374;2022-07-23T12:12:46;95728.00;;;40.27;15.80
31873;BME280;22407;42.820;23.374;2022-07-23T12:15:19;95726.55;;;39.81;16.59
31873;BME280;22407;42.820;23.374;2022-07-23T12:17:51;95723.11;;;39.44;17.12
31873;BME280;22407;42.820;23.374;2022-07-23T12:20:28;95721.99;;;38.89;16.55
31873;BME280;22407;42.820;23.374;2022-07-23T12:23:01;95722.61;;;38.75;16.77
31873;BME280;22407;42.820;23.374;2022-07-23T12:25:33;95728.67;;;38.77;17.21
31873;BME280;22407;42.820;23.374;2022-07-23T12:28:16;95715.81;;;38.81;16.90
31873;BME280;22407;42.820;23.374;2022-07-23T12:30:47;95719.78;;;38.41;17.09
31873;BME280;22407;42.820;23.374;2022-07-23T12:33:31;95718.64;;;38.17;16.73
31873;BME280;22407;42.820;23.374;2022-07-23T12:36:09;95715.00;;;37.91;15.59
31873;BME280;22407;42.820;23.374;2022-07-23T12:38:43;95715.34;;;37.29;16.35
31873;BME280;22407;42.820;23.374;2022-07-23T12:41:12;95709.75;;;37.31;16.15
31873;BME280;22407;42.820;23.374;2022-07-23T12:43:43;95711.19;;;37.29;17.78
31873;BME280;22407;42.820;23.374;2022-07-23T12:46:20;95713.55;;;37.36;16.48
